Huvudsida
METAR-TAF:

METAR-TAF

Flygplatser :

Pointe Noire Airport

Pointe-Noire, Kongo

latitud: 04-49S, longitud: 011-54E, höjd: 17 m

Aktuellt väderrapport

Denna rapport gjordes för 34 minuter sedan, klockan 08:00 UTC
Vind 5 kt från syd/sydväst, varierande mellan syd/sydost och väst
Temperatur 29°C
Fuktighet 74%
Tryck 1012 hPa
Sikt: 9000 m
Spridda moln på en höjd av 1500 ft

METAR: FCPP 230800Z 20005KT 150V260 9000 SCT015 29/24 Q1012 NOSIG

Tid: 09:34 (08:34 UTC)

Väderprognos

Denna rapport gjordes för 3 timmar och 34 minuter sedan, klockan 05:00 UTC
Prognos gäller från 23 kl. 06 UTC till 24 kl. 06 UTC
Vind 7 kt från syd/sydväst
Sikt: 8000 m
Spridda moln på en höjd av 1200 ft
Brutna moln på en höjd av 2300 ft

TAF: FCPP 230500Z 2306/2406 20007KT 8000 SCT012 BKN023

Aktuella väderrapporter och prognoser från 4000 flygplatser (METAR- och TAF-rapporter).

De tillgängliga stationerna syns som gula och röda prickar på kartan.

För musen över prickarna för att se namnen på stationerna.

Klicka sedan för att få väderrapporter och prognoser.

För att ändra kartan: Klicka på de gröna knapparna med ett svart kors på för att zooma in; den gröna knappen med ett streck på för att zooma ut; eller på de gröna pilarna för angränsande kartor.


METAR-TAF: